Lewis, Kansas
Current Conditions -  °F | °C
As of 11:55 AM on Tuesday 21 Oct 2014 (Local Time) from KPTT Reporting Station
Clear Clear  
Wind Chill: 72°   Ceiling: Unl
Heat Index: 72°   Visibility: 10mi
Dew Point: 57°   Wind: 9mph
Humidity: 60%   Direction: 170°S
Pressure: 30.09"   Gusts: NA
Location:  37.94°N, 99.25°W
Report Text: KPTT 211655Z AUTO 17008KT 10SM CLR 22/14 A3009 RMK AO2
Loading
Personal Weather Stations






























Interactive Weather Map
Tropical Storm Tracking
New forecast layout! Learn more

10-Day Weather Forecast

Advertisements
Track Severe Weather on mobile